America — WDI7244 — position and weather

sailwx.info

Track history (hours):
 
Tides and Currents Weather Stations Pressure Air Temp Water Temp Dewpoint Dewpoint Depression Visibility Wind Speed Wind Dir Waves Ship Positions

America

Owner: United New York & New Jersey Sandy Hook Pilots Association, Staten Island, NY. More information available from US FCC via Universal Licensing System and Coast Guard Vessel Documentation Center.

Last reported at 2018-Apr-18 12:06 UTC. Time now 2018-Apr-20 05:10 UTC.
Position N 40°32' W 073°59'.

Length 17 m; draft 2.6 m.

Type: Pilot. MMSI: 367726810.

Date/timePositionNaut miles runAvg speedWind from/ knotsBaromVisibWave heightAir tempDewpointWater temp
2018-Apr-18 12:06N 40°32' W 073°59'220.2
2018-Apr-18 12:00N 40°33' W 074°01'4 1.5
2018-Apr-18 09:22N 40°37' W 074°03'717.0
2018-Apr-18 08:56N 40°31' W 073°56'3 3.5
2018-Apr-18 08:03N 40°30' W 073°53'220.6
2018-Apr-18 07:58N 40°30' W 073°55'9 1.4
2018-Apr-18 01:54N 40°37' W 074°03'819.8
2018-Apr-18 01:30N 40°30' W 073°56'713.9
2018-Apr-18 01:00N 40°36' W 074°02'1 0.1
2018-Apr-17 02:54N 40°37' W 074°03'9 0.2
2018-Apr-15 14:48N 40°30' W 073°56'1 0.1
2018-Apr-15 04:37N 40°30' W 073°57'0 3.1
2018-Apr-15 04:30N 40°30' W 073°57'2 3.1
2018-Apr-15 03:51N 40°29' W 073°55'2 4.7
2018-Apr-15 03:30N 40°28' W 073°53'2 0.1
2018-Apr-14 03:58N 40°27' W 073°50'1 1.4
2018-Apr-14 03:28N 40°27' W 073°50'1 0.5
2018-Apr-14 02:16N 40°27' W 073°50'1 2.3
2018-Apr-14 01:59N 40°28' W 073°50'1 0.1
2018-Apr-13 22:05N 40°28' W 073°49'0 1.5
2018-Apr-13 21:53N 40°28' W 073°49'1 1.9
2018-Apr-13 21:30N 40°28' W 073°49'1 1.9
2018-Apr-13 20:50N 40°26' W 073°49'7 7.8
2018-Apr-13 19:57N 40°30' W 073°56'920.5
2018-Apr-13 19:31N 40°37' W 074°04'0 0.0
2018-Apr-13 03:06N 40°37' W 074°04'219.1
2018-Apr-13 03:00N 40°35' W 074°02'917.6
2018-Apr-13 02:28N 40°29' W 073°53'816.9
2018-Apr-13 01:59N 40°34' W 074°01'3 1.0
2018-Apr-12 23:28N 40°37' W 074°03'1020.8
2018-Apr-12 22:58N 40°30' W 073°53'1 2.4
2018-Apr-12 22:27N 40°29' W 073°52'918.4
2018-Apr-12 21:59N 40°34' W 074°01'4 0.3
2018-Apr-12 09:11N 40°37' W 074°04'1 0.2
2018-Apr-12 05:23N 40°37' W 074°03'819.7
2018-Apr-12 05:00N 40°31' W 073°56'2 3.2
2018-Apr-12 04:20N 40°32' W 073°59'6 0.8
2018-Apr-11 20:59N 40°37' W 074°03'918.8
2018-Apr-11 20:29N 40°27' W 074°03'611.7
2018-Apr-11 20:00N 40°33' W 074°02'4 1.5
2018-Apr-11 17:27N 40°37' W 074°03'920.2
2018-Apr-11 17:00N 40°31' W 073°55'4 6.7
2018-Apr-11 16:28N 40°32' W 073°59'5 0.4
2018-Apr-11 03:28N 40°36' W 074°03'6 6.1
2018-Apr-11 02:27N 40°32' W 073°58'714.2
2018-Apr-11 01:58N 40°37' W 074°04'0 0.0
2018-Apr-11 01:29N 40°37' W 074°04'0 0.0
2018-Apr-11 01:00N 40°37' W 074°04'0 0.0
2018-Apr-11 00:29N 40°37' W 074°04'0 0.0
2018-Apr-10 23:59N 40°37' W 074°04'0 0.0
2018-Apr-10 23:29N 40°37' W 074°04'0 0.0
2018-Apr-10 23:00N 40°37' W 074°04'6 5.3
2018-Apr-10 21:49N 40°32' W 073°59'6 2.5
2018-Apr-10 19:18N 40°37' W 074°04'617.8
2018-Apr-10 18:58N 40°33' W 073°59'4 4.9
2018-Apr-10 18:11N 40°29' W 074°01'211.9
2018-Apr-10 18:00N 40°27' W 074°03'3 6.6
2018-Apr-10 17:30N 40°31' W 074°03'  
Track history (hours):
 
Tides and Currents Weather Stations Pressure Air Temp Water Temp Dewpoint Dewpoint Depression Visibility Wind Speed Wind Dir Waves Ship Positions

America

Owner: United New York & New Jersey Sandy Hook Pilots Association, Staten Island, NY. More information available from US FCC via Universal Licensing System and Coast Guard Vessel Documentation Center.

Last reported at 2018-Apr-18 12:06 UTC. Time now 2018-Apr-20 05:10 UTC.
Position N 40°32' W 073°59'.

Length 17 m; draft 2.6 m.

Type: Pilot. MMSI: 367726810.

Date/timePositionNaut miles runAvg speedWind from/ knotsBaromVisibWave heightAir tempDewpointWater temp
2018-Apr-18 12:06N 40°32' W 073°59'220.2
2018-Apr-18 12:00N 40°33' W 074°01'4 1.5
2018-Apr-18 09:22N 40°37' W 074°03'717.0
2018-Apr-18 08:56N 40°31' W 073°56'3 3.5
2018-Apr-18 08:03N 40°30' W 073°53'220.6
2018-Apr-18 07:58N 40°30' W 073°55'9 1.4
2018-Apr-18 01:54N 40°37' W 074°03'819.8
2018-Apr-18 01:30N 40°30' W 073°56'713.9
2018-Apr-18 01:00N 40°36' W 074°02'1 0.1
2018-Apr-17 02:54N 40°37' W 074°03'9 0.2
2018-Apr-15 14:48N 40°30' W 073°56'1 0.1
2018-Apr-15 04:37N 40°30' W 073°57'0 3.1
2018-Apr-15 04:30N 40°30' W 073°57'2 3.1
2018-Apr-15 03:51N 40°29' W 073°55'2 4.7
2018-Apr-15 03:30N 40°28' W 073°53'2 0.1
2018-Apr-14 03:58N 40°27' W 073°50'1 1.4
2018-Apr-14 03:28N 40°27' W 073°50'1 0.5
2018-Apr-14 02:16N 40°27' W 073°50'1 2.3
2018-Apr-14 01:59N 40°28' W 073°50'1 0.1
2018-Apr-13 22:05N 40°28' W 073°49'0 1.5
2018-Apr-13 21:53N 40°28' W 073°49'1 1.9
2018-Apr-13 21:30N 40°28' W 073°49'1 1.9
2018-Apr-13 20:50N 40°26' W 073°49'7 7.8
2018-Apr-13 19:57N 40°30' W 073°56'920.5
2018-Apr-13 19:31N 40°37' W 074°04'0 0.0
2018-Apr-13 03:06N 40°37' W 074°04'219.1
2018-Apr-13 03:00N 40°35' W 074°02'917.6
2018-Apr-13 02:28N 40°29' W 073°53'816.9
2018-Apr-13 01:59N 40°34' W 074°01'3 1.0
2018-Apr-12 23:28N 40°37' W 074°03'1020.8
2018-Apr-12 22:58N 40°30' W 073°53'1 2.4
2018-Apr-12 22:27N 40°29' W 073°52'918.4
2018-Apr-12 21:59N 40°34' W 074°01'4 0.3
2018-Apr-12 09:11N 40°37' W 074°04'1 0.2
2018-Apr-12 05:23N 40°37' W 074°03'819.7
2018-Apr-12 05:00N 40°31' W 073°56'2 3.2
2018-Apr-12 04:20N 40°32' W 073°59'6 0.8
2018-Apr-11 20:59N 40°37' W 074°03'918.8
2018-Apr-11 20:29N 40°27' W 074°03'611.7
2018-Apr-11 20:00N 40°33' W 074°02'4 1.5
2018-Apr-11 17:27N 40°37' W 074°03'920.2
2018-Apr-11 17:00N 40°31' W 073°55'4 6.7
2018-Apr-11 16:28N 40°32' W 073°59'5 0.4
2018-Apr-11 03:28N 40°36' W 074°03'6 6.1
2018-Apr-11 02:27N 40°32' W 073°58'714.2
2018-Apr-11 01:58N 40°37' W 074°04'0 0.0
2018-Apr-11 01:29N 40°37' W 074°04'0 0.0
2018-Apr-11 01:00N 40°37' W 074°04'0 0.0
2018-Apr-11 00:29N 40°37' W 074°04'0 0.0
2018-Apr-10 23:59N 40°37' W 074°04'0 0.0
2018-Apr-10 23:29N 40°37' W 074°04'0 0.0
2018-Apr-10 23:00N 40°37' W 074°04'6 5.3
2018-Apr-10 21:49N 40°32' W 073°59'6 2.5
2018-Apr-10 19:18N 40°37' W 074°04'617.8
2018-Apr-10 18:58N 40°33' W 073°59'4 4.9
2018-Apr-10 18:11N 40°29' W 074°01'211.9
2018-Apr-10 18:00N 40°27' W 074°03'3 6.6
2018-Apr-10 17:30N 40°31' W 074°03'  

Dump ship's entire track history